createdAt,value
2023-01-13T00:00:32.751Z,4.95
2023-01-13T00:02:04.743Z,4.96
2023-01-13T00:03:37.141Z,4.95
2023-01-13T00:05:10.303Z,4.93
2023-01-13T00:06:42.258Z,4.91
2023-01-13T00:08:14.261Z,4.89
2023-01-13T00:09:46.211Z,4.86
2023-01-13T00:11:19.157Z,4.85
2023-01-13T00:12:51.518Z,4.82
2023-01-13T00:14:23.589Z,4.81
2023-01-13T00:15:59.432Z,4.80
2023-01-13T00:17:31.495Z,4.77
2023-01-13T00:19:03.406Z,4.76
2023-01-13T00:20:35.369Z,4.75
2023-01-13T00:22:07.243Z,4.73
2023-01-13T00:23:39.726Z,4.72
2023-01-13T00:25:11.844Z,4.72
2023-01-13T00:26:44.200Z,4.73
2023-01-13T00:28:16.093Z,4.72
2023-01-13T00:29:48.416Z,4.70
2023-01-13T00:31:21.203Z,4.71
2023-01-13T00:32:53.255Z,4.69
2023-01-13T00:34:25.219Z,4.68
2023-01-13T00:35:58.093Z,4.68
2023-01-13T00:37:30.011Z,4.68
2023-01-13T00:39:03.232Z,4.68
2023-01-13T00:40:35.158Z,4.67
2023-01-13T00:42:25.683Z,4.65
2023-01-13T00:43:57.611Z,4.63
2023-01-13T00:45:29.577Z,4.63
2023-01-13T00:47:01.811Z,4.61
2023-01-13T00:48:34.016Z,4.61
2023-01-13T00:50:05.963Z,4.60
2023-01-13T00:51:37.978Z,4.59
2023-01-13T00:53:09.938Z,4.57
2023-01-13T00:54:41.973Z,4.59
2023-01-13T00:56:16.665Z,4.57
2023-01-13T00:57:48.725Z,4.58
2023-01-13T00:59:20.661Z,4.59
2023-01-13T01:00:52.784Z,4.58
2023-01-13T01:02:24.803Z,4.57
2023-01-13T01:03:56.885Z,4.58
2023-01-13T01:05:28.777Z,4.57
2023-01-13T01:07:00.802Z,4.56
2023-01-13T01:08:32.814Z,4.57
2023-01-13T01:10:04.980Z,4.57
2023-01-13T01:11:37.932Z,4.57
2023-01-13T01:13:11.868Z,4.56
2023-01-13T01:14:44.712Z,4.55
2023-01-13T01:16:17.856Z,4.54
2023-01-13T01:17:49.912Z,4.53
2023-01-13T01:19:21.909Z,4.52
2023-01-13T01:20:53.814Z,4.51
2023-01-13T01:22:25.836Z,4.52
2023-01-13T01:23:59.319Z,4.54
2023-01-13T01:25:32.537Z,4.53
2023-01-13T01:27:04.447Z,4.53
2023-01-13T01:28:36.339Z,4.51
2023-01-13T01:30:08.733Z,4.50
2023-01-13T01:31:40.668Z,4.49
2023-01-13T01:33:12.647Z,4.51
2023-01-13T01:34:44.627Z,4.49
2023-01-13T01:36:17.375Z,4.47
2023-01-13T01:37:49.573Z,4.46
2023-01-13T01:39:21.693Z,4.45
2023-01-13T01:40:53.582Z,4.45
2023-01-13T01:42:45.904Z,4.46
2023-01-13T01:44:36.097Z,4.45
2023-01-13T01:46:08.029Z,4.43
2023-01-13T01:47:40.727Z,4.44
2023-01-13T01:49:12.638Z,4.42
2023-01-13T01:50:44.966Z,4.42
2023-01-13T01:52:22.576Z,4.39
2023-01-13T01:53:56.733Z,4.38
2023-01-13T01:55:33.463Z,4.38
2023-01-13T01:57:06.081Z,4.38
2023-01-13T01:58:42.282Z,4.37
2023-01-13T02:00:14.786Z,4.38
2023-01-13T02:01:47.800Z,4.37
2023-01-13T02:03:20.130Z,4.38
2023-01-13T02:04:53.560Z,4.36
2023-01-13T02:06:25.582Z,4.35
2023-01-13T02:07:58.898Z,4.34
2023-01-13T02:09:31.269Z,4.31
2023-01-13T02:11:04.655Z,4.29
2023-01-13T02:12:37.208Z,4.25
2023-01-13T02:14:09.193Z,4.23
2023-01-13T02:16:08.682Z,4.17
2023-01-13T02:17:47.949Z,4.11
2023-01-13T02:19:38.541Z,4.07
2023-01-13T02:21:29.182Z,4.02
2023-01-13T02:23:01.058Z,3.97
2023-01-13T02:24:55.698Z,3.93
2023-01-13T02:26:27.754Z,3.89
2023-01-13T02:28:18.552Z,3.88
2023-01-13T02:30:27.327Z,3.82
2023-01-13T02:32:04.810Z,3.79
2023-01-13T02:33:37.171Z,3.79
2023-01-13T02:35:21.563Z,3.79
2023-01-13T02:36:58.346Z,3.77
2023-01-13T02:38:33.236Z,3.78
2023-01-13T02:40:26.098Z,3.81
2023-01-13T02:42:23.102Z,3.81
2023-01-13T02:44:08.839Z,3.80
2023-01-13T02:45:43.815Z,3.81
2023-01-13T02:47:20.880Z,3.81
2023-01-13T02:48:54.417Z,3.80
2023-01-13T02:50:32.352Z,3.80
2023-01-13T02:52:10.361Z,3.80
2023-01-13T02:53:51.035Z,3.79
2023-01-13T02:55:43.379Z,3.79
2023-01-13T02:57:17.388Z,3.80
2023-01-13T02:58:50.384Z,3.81
2023-01-13T03:00:23.321Z,3.83
2023-01-13T03:01:57.111Z,3.89
2023-01-13T03:03:29.239Z,3.90
2023-01-13T03:05:01.191Z,3.93
2023-01-13T03:06:37.275Z,3.96
2023-01-13T03:08:12.055Z,3.97
2023-01-13T03:09:50.291Z,3.97
2023-01-13T03:11:22.367Z,3.97
2023-01-13T03:13:06.524Z,3.97
2023-01-13T03:14:38.415Z,3.97
2023-01-13T03:16:13.055Z,3.97
2023-01-13T03:17:50.765Z,3.96
2023-01-13T03:19:30.316Z,3.93
2023-01-13T03:21:06.430Z,3.93
2023-01-13T03:22:42.958Z,3.90
2023-01-13T03:24:17.889Z,3.88
2023-01-13T03:25:53.411Z,3.84
2023-01-13T03:27:30.178Z,3.81
2023-01-13T03:29:22.077Z,3.76
2023-01-13T03:30:57.075Z,3.71
2023-01-13T03:32:32.640Z,3.70
2023-01-13T03:34:07.729Z,3.69
2023-01-13T03:35:42.032Z,3.66
2023-01-13T03:37:14.872Z,3.64
2023-01-13T03:38:51.636Z,3.61
2023-01-13T03:40:27.280Z,3.59
2023-01-13T03:42:01.783Z,3.58
2023-01-13T03:43:57.675Z,3.57
2023-01-13T03:45:31.237Z,3.58
2023-01-13T03:47:03.997Z,3.60
2023-01-13T03:48:36.848Z,3.61
2023-01-13T03:50:11.933Z,3.64
2023-01-13T03:51:46.299Z,3.65
2023-01-13T03:53:23.036Z,3.66
2023-01-13T03:54:58.148Z,3.69
2023-01-13T03:56:33.834Z,3.71
2023-01-13T03:58:08.542Z,3.72
2023-01-13T03:59:42.728Z,3.71
2023-01-13T04:01:32.124Z,3.70
2023-01-13T04:03:04.206Z,3.69
2023-01-13T04:04:40.303Z,3.68
2023-01-13T04:06:23.767Z,3.68
2023-01-13T04:08:07.730Z,3.68
2023-01-13T04:09:42.790Z,3.66
2023-01-13T04:11:18.607Z,3.67
2023-01-13T04:13:02.000Z,3.68
2023-01-13T04:14:35.012Z,3.70
2023-01-13T04:16:07.918Z,3.72
2023-01-13T04:17:40.272Z,3.73
2023-01-13T04:19:12.285Z,3.72
2023-01-13T04:20:45.433Z,3.73
2023-01-13T04:22:17.426Z,3.73
2023-01-13T04:23:51.538Z,3.74
2023-01-13T04:25:23.498Z,3.79
2023-01-13T04:26:56.554Z,3.80
2023-01-13T04:28:28.490Z,3.84
2023-01-13T04:30:00.398Z,3.87
2023-01-13T04:31:32.541Z,3.92
2023-01-13T04:33:05.351Z,3.95
2023-01-13T04:34:37.364Z,3.98
2023-01-13T04:36:09.400Z,4.00
2023-01-13T04:37:41.385Z,4.02
2023-01-13T04:39:13.379Z,4.02
2023-01-13T04:40:45.627Z,4.05
2023-01-13T04:42:17.572Z,4.05
2023-01-13T04:43:49.584Z,4.06
2023-01-13T04:45:21.558Z,4.08
2023-01-13T04:46:53.712Z,4.08
2023-01-13T04:48:25.613Z,4.09
2023-01-13T04:49:57.557Z,4.09
2023-01-13T04:51:29.479Z,4.12
2023-01-13T04:53:01.682Z,4.11
2023-01-13T04:54:33.858Z,4.13
2023-01-13T04:56:06.115Z,4.11
2023-01-13T04:57:38.084Z,4.11
2023-01-13T04:59:10.682Z,4.13
2023-01-13T05:00:42.631Z,4.15
2023-01-13T05:02:20.023Z,4.19
2023-01-13T05:03:52.173Z,4.19
2023-01-13T05:05:24.184Z,4.19
2023-01-13T05:06:56.099Z,4.19
2023-01-13T05:08:28.089Z,4.18
2023-01-13T05:10:00.059Z,4.18
2023-01-13T05:11:50.636Z,4.18
2023-01-13T05:13:41.177Z,4.19
2023-01-13T05:15:32.230Z,4.18
2023-01-13T05:17:04.285Z,4.21
2023-01-13T05:18:36.412Z,4.20
2023-01-13T05:20:08.943Z,4.20
2023-01-13T05:21:59.366Z,4.19
2023-01-13T05:23:49.892Z,4.17
2023-01-13T05:25:21.905Z,4.18
2023-01-13T05:26:53.848Z,4.17
2023-01-13T05:28:25.833Z,4.16
2023-01-13T05:29:57.979Z,4.16
2023-01-13T05:31:30.022Z,4.15
2023-01-13T05:33:02.002Z,4.13
2023-01-13T05:34:34.057Z,4.12
2023-01-13T05:36:06.274Z,4.10
2023-01-13T05:37:38.302Z,4.11
2023-01-13T05:39:10.254Z,4.10
2023-01-13T05:41:00.831Z,4.10
2023-01-13T05:42:51.188Z,4.12
2023-01-13T05:44:23.156Z,4.15
2023-01-13T05:46:02.810Z,4.20
2023-01-13T05:47:34.822Z,4.22
2023-01-13T05:49:06.802Z,4.24
2023-01-13T05:50:38.811Z,4.24
2023-01-13T05:52:10.872Z,4.24
2023-01-13T05:53:42.889Z,4.24
2023-01-13T05:55:15.012Z,4.22
2023-01-13T05:56:47.117Z,4.22
2023-01-13T05:58:20.016Z,4.23
2023-01-13T05:59:51.998Z,4.23
2023-01-13T06:01:23.989Z,4.23
2023-01-13T06:02:55.997Z,4.23
2023-01-13T06:04:28.061Z,4.20
2023-01-13T06:06:02.251Z,4.20
2023-01-13T06:07:34.272Z,4.24
2023-01-13T06:09:06.281Z,4.22
2023-01-13T06:10:38.261Z,4.22
2023-01-13T06:12:13.548Z,4.26
2023-01-13T06:13:45.627Z,4.26
2023-01-13T06:15:17.952Z,4.24
2023-01-13T06:16:49.891Z,4.22
2023-01-13T06:18:21.934Z,4.19
2023-01-13T06:19:53.888Z,4.19
2023-01-13T06:21:25.899Z,4.15
2023-01-13T06:22:57.907Z,4.11
2023-01-13T06:24:29.845Z,4.09
2023-01-13T06:26:01.823Z,4.11
2023-01-13T06:27:34.452Z,4.09
2023-01-13T06:29:06.673Z,4.07
2023-01-13T06:30:40.230Z,4.05
2023-01-13T06:32:17.712Z,4.05
2023-01-13T06:33:52.245Z,4.04
2023-01-13T06:35:26.129Z,4.03
2023-01-13T06:36:58.067Z,4.02
2023-01-13T06:38:31.276Z,4.00
2023-01-13T06:40:05.203Z,3.99
2023-01-13T06:41:56.004Z,4.00
2023-01-13T06:43:28.222Z,3.99
2023-01-13T06:45:00.390Z,4.00
2023-01-13T06:46:32.590Z,3.98
2023-01-13T06:48:04.942Z,4.03
2023-01-13T06:49:37.525Z,4.02
2023-01-13T06:51:09.455Z,4.03
2023-01-13T06:52:41.450Z,4.04
2023-01-13T06:54:13.400Z,3.99
2023-01-13T06:55:45.684Z,4.00
2023-01-13T06:57:17.685Z,3.98
2023-01-13T06:58:49.667Z,4.02
2023-01-13T07:00:22.140Z,4.05
2023-01-13T07:01:54.321Z,4.09
2023-01-13T07:03:26.411Z,4.08
2023-01-13T07:04:58.453Z,4.09
2023-01-13T07:06:30.564Z,4.10
2023-01-13T07:08:02.565Z,4.09
2023-01-13T07:09:34.488Z,4.10
2023-01-13T07:11:07.144Z,4.13
2023-01-13T07:12:59.807Z,4.13
2023-01-13T07:14:50.186Z,4.18
2023-01-13T07:16:24.321Z,4.17
2023-01-13T07:17:56.387Z,4.16
2023-01-13T07:19:28.464Z,4.10
2023-01-13T07:21:01.676Z,4.11
2023-01-13T07:22:33.649Z,4.11
2023-01-13T07:24:05.754Z,4.10
2023-01-13T07:25:37.714Z,4.14
2023-01-13T07:27:09.727Z,4.17
2023-01-13T07:28:41.700Z,4.20
2023-01-13T07:30:13.921Z,4.23
2023-01-13T07:31:47.652Z,4.28
2023-01-13T07:33:21.867Z,4.31
2023-01-13T07:34:53.843Z,4.30
2023-01-13T07:36:25.897Z,4.28
2023-01-13T07:37:57.899Z,4.28
2023-01-13T07:39:30.037Z,4.36
2023-01-13T07:41:21.906Z,4.37
2023-01-13T07:43:12.663Z,4.39
2023-01-13T07:44:44.760Z,4.44
2023-01-13T07:46:17.119Z,4.44
2023-01-13T07:47:50.925Z,4.53
2023-01-13T07:49:22.882Z,4.57
2023-01-13T07:50:55.616Z,4.59
2023-01-13T07:52:27.733Z,4.62
2023-01-13T07:53:59.711Z,4.67
2023-01-13T07:55:31.746Z,4.71
2023-01-13T07:57:03.810Z,4.75
2023-01-13T07:58:36.594Z,4.77
2023-01-13T08:00:10.480Z,4.78
2023-01-13T08:01:44.140Z,4.79
2023-01-13T08:03:16.130Z,4.78
2023-01-13T08:04:48.228Z,4.76
2023-01-13T08:06:20.250Z,4.77
2023-01-13T08:07:52.309Z,4.75
2023-01-13T08:09:24.454Z,4.71
2023-01-13T08:11:00.212Z,4.69
2023-01-13T08:12:55.734Z,4.69
2023-01-13T08:14:28.959Z,4.65
2023-01-13T08:16:02.427Z,4.67
2023-01-13T08:17:34.487Z,4.69
2023-01-13T08:19:06.501Z,4.75
2023-01-13T08:20:38.567Z,4.73
2023-01-13T08:22:10.597Z,4.74
2023-01-13T08:23:43.692Z,4.74
2023-01-13T08:25:15.832Z,4.81
2023-01-13T08:26:47.855Z,4.82
2023-01-13T08:28:19.832Z,4.79
2023-01-13T08:29:51.933Z,4.80
2023-01-13T08:31:23.964Z,4.81
2023-01-13T08:32:56.213Z,4.87
2023-01-13T08:34:28.252Z,4.91
2023-01-13T08:36:03.304Z,4.92
2023-01-13T08:37:35.358Z,4.95
2023-01-13T08:39:07.466Z,4.99
2023-01-13T08:40:40.206Z,5.03
2023-01-13T08:42:12.336Z,5.04
2023-01-13T08:43:44.311Z,5.06
2023-01-13T08:45:16.824Z,5.03
2023-01-13T08:46:48.962Z,5.04
2023-01-13T08:48:21.118Z,5.08
2023-01-13T08:49:53.145Z,5.11
2023-01-13T08:51:25.315Z,5.12
2023-01-13T08:52:57.325Z,5.14
2023-01-13T08:54:29.483Z,5.20
2023-01-13T08:56:01.444Z,5.22
2023-01-13T08:57:33.565Z,5.23
2023-01-13T08:59:06.108Z,5.22
2023-01-13T09:00:38.147Z,5.28
2023-01-13T09:02:13.291Z,5.32
2023-01-13T09:03:45.453Z,5.42
2023-01-13T09:05:17.941Z,5.42
2023-01-13T09:06:50.246Z,5.52
2023-01-13T09:08:22.240Z,5.57
2023-01-13T09:09:56.889Z,5.70
2023-01-13T09:11:49.573Z,5.78
2023-01-13T09:13:22.200Z,5.88
2023-01-13T09:14:54.199Z,5.94
2023-01-13T09:16:26.668Z,5.91
2023-01-13T09:17:58.782Z,5.94
2023-01-13T09:19:30.860Z,5.94
2023-01-13T09:21:02.836Z,5.98
2023-01-13T09:22:37.611Z,5.92
2023-01-13T09:24:09.673Z,5.95
2023-01-13T09:25:41.761Z,5.93
2023-01-13T09:27:14.941Z,5.95
2023-01-13T09:28:47.058Z,6.10
2023-01-13T09:30:19.166Z,6.25
2023-01-13T09:31:51.193Z,6.41
2023-01-13T09:33:41.934Z,6.52
2023-01-13T09:35:14.017Z,6.57
2023-01-13T09:36:46.030Z,6.61
2023-01-13T09:38:18.047Z,6.62
2023-01-13T09:39:50.038Z,6.55
2023-01-13T09:41:44.384Z,6.49
2023-01-13T09:43:38.131Z,6.48
2023-01-13T09:45:18.272Z,6.40
2023-01-13T09:46:53.459Z,6.33
2023-01-13T09:48:28.493Z,6.33
2023-01-13T09:50:15.505Z,6.26
2023-01-13T09:51:54.742Z,6.30
2023-01-13T09:53:37.000Z,6.34
2023-01-13T09:55:15.145Z,6.41
2023-01-13T09:56:47.257Z,6.40
2023-01-13T09:58:19.837Z,6.43
2023-01-13T09:59:52.873Z,6.42
2023-01-13T10:01:24.826Z,6.39
2023-01-13T10:03:01.789Z,6.40
2023-01-13T10:04:34.072Z,6.44
2023-01-13T10:06:15.691Z,6.45
2023-01-13T10:07:50.951Z,6.44
2023-01-13T10:09:54.944Z,6.36
2023-01-13T10:11:49.002Z,6.27
2023-01-13T10:13:25.934Z,6.22
2023-01-13T10:14:57.942Z,6.15
2023-01-13T10:16:42.061Z,6.05
2023-01-13T10:18:24.260Z,5.98
2023-01-13T10:19:59.346Z,5.93
2023-01-13T10:21:53.160Z,5.87
2023-01-13T10:23:40.544Z,5.84
2023-01-13T10:25:21.041Z,5.91
2023-01-13T10:27:03.354Z,5.99
2023-01-13T10:28:35.268Z,6.01
2023-01-13T10:30:23.999Z,6.03
2023-01-13T10:31:56.876Z,6.03
2023-01-13T10:33:28.989Z,6.08
2023-01-13T10:35:01.791Z,6.16
2023-01-13T10:36:34.578Z,6.28
2023-01-13T10:38:15.018Z,6.33
2023-01-13T10:39:48.429Z,6.44
2023-01-13T10:41:24.384Z,6.49
2023-01-13T10:43:08.672Z,6.55
2023-01-13T10:45:08.017Z,6.62
2023-01-13T10:46:53.485Z,6.71
2023-01-13T10:48:32.985Z,6.77
2023-01-13T10:50:13.796Z,6.83
2023-01-13T10:51:49.579Z,6.84
2023-01-13T10:53:25.234Z,6.92
2023-01-13T10:54:57.470Z,6.98
2023-01-13T10:56:31.408Z,6.94
2023-01-13T10:58:19.670Z,6.90
2023-01-13T10:59:53.073Z,6.88
2023-01-13T11:01:26.658Z,6.83
2023-01-13T11:03:15.614Z,6.83
2023-01-13T11:04:53.837Z,6.83
2023-01-13T11:06:27.981Z,6.79
2023-01-13T11:08:00.028Z,6.83
2023-01-13T11:09:32.155Z,6.77
2023-01-13T11:11:22.891Z,6.79
2023-01-13T11:12:54.849Z,6.83
2023-01-13T11:14:41.774Z,6.88
2023-01-13T11:16:15.656Z,6.89
2023-01-13T11:18:19.990Z,6.94
2023-01-13T11:20:00.810Z,6.96
2023-01-13T11:21:38.934Z,6.99
2023-01-13T11:23:25.405Z,7.09
2023-01-13T11:24:59.903Z,7.14
2023-01-13T11:26:40.824Z,7.13
2023-01-13T11:28:21.029Z,7.13
2023-01-13T11:30:10.186Z,7.17
2023-01-13T11:31:53.488Z,7.13
2023-01-13T11:33:30.904Z,7.04
2023-01-13T11:35:04.983Z,7.04
2023-01-13T11:36:57.267Z,7.03
2023-01-13T11:38:38.491Z,7.03
2023-01-13T11:40:16.590Z,7.12
2023-01-13T11:42:12.245Z,7.27
2023-01-13T11:43:46.948Z,7.39
2023-01-13T11:45:21.971Z,7.54
2023-01-13T11:46:54.071Z,7.69
2023-01-13T11:48:30.533Z,7.76
2023-01-13T11:50:03.057Z,7.77
2023-01-13T11:51:48.503Z,7.73
2023-01-13T11:53:20.450Z,7.64
2023-01-13T11:54:58.240Z,7.66
2023-01-13T11:56:48.452Z,7.69
2023-01-13T11:58:20.487Z,7.64
2023-01-13T11:59:52.587Z,7.65
2023-01-13T12:01:29.826Z,7.63
2023-01-13T12:03:17.482Z,7.63
2023-01-13T12:04:49.513Z,7.65
2023-01-13T12:06:21.460Z,7.68
2023-01-13T12:07:58.797Z,7.75
2023-01-13T12:09:39.777Z,7.67
2023-01-13T12:11:11.792Z,7.57
2023-01-13T12:13:02.567Z,7.45
2023-01-13T12:14:40.386Z,7.40
2023-01-13T12:16:26.413Z,7.30
2023-01-13T12:18:01.259Z,7.20
2023-01-13T12:19:33.240Z,7.17
2023-01-13T12:21:21.665Z,7.18
2023-01-13T12:22:55.791Z,7.19
2023-01-13T12:24:36.666Z,7.15
2023-01-13T12:26:11.276Z,7.04
2023-01-13T12:27:59.310Z,6.92
2023-01-13T12:29:33.286Z,6.88
2023-01-13T12:31:07.405Z,6.88
2023-01-13T12:32:39.650Z,6.87
2023-01-13T12:34:29.965Z,6.88
2023-01-13T12:36:07.127Z,6.87
2023-01-13T12:37:59.333Z,6.90
2023-01-13T12:39:44.548Z,6.94
2023-01-13T12:41:30.843Z,6.90
2023-01-13T12:43:22.702Z,6.87
2023-01-13T12:45:09.873Z,6.91
2023-01-13T12:46:45.180Z,6.88
2023-01-13T12:48:35.545Z,6.90
2023-01-13T12:50:22.576Z,6.92
2023-01-13T12:51:54.607Z,6.98
2023-01-13T12:53:30.879Z,6.98
2023-01-13T12:55:08.011Z,7.02
2023-01-13T12:56:42.270Z,7.05
2023-01-13T12:58:17.353Z,7.09
2023-01-13T13:00:04.415Z,7.10
2023-01-13T13:01:37.147Z,7.14
2023-01-13T13:03:15.826Z,7.18
2023-01-13T13:04:51.780Z,7.20
2023-01-13T13:06:24.064Z,7.16
2023-01-13T13:08:10.160Z,7.15
2023-01-13T13:09:49.520Z,7.14
2023-01-13T13:11:41.996Z,7.11
2023-01-13T13:13:32.810Z,7.09
2023-01-13T13:15:05.494Z,7.11
2023-01-13T13:16:45.705Z,7.06
2023-01-13T13:18:17.791Z,7.07
2023-01-13T13:19:49.964Z,7.08
2023-01-13T13:21:22.160Z,7.08
2023-01-13T13:22:54.085Z,7.10
2023-01-13T13:24:26.381Z,7.14
2023-01-13T13:26:13.345Z,7.17
2023-01-13T13:27:48.063Z,7.19
2023-01-13T13:29:20.060Z,7.22
2023-01-13T13:30:58.083Z,7.24
2023-01-13T13:32:35.845Z,7.24
2023-01-13T13:34:10.801Z,7.24
2023-01-13T13:35:43.326Z,7.28
2023-01-13T13:37:24.358Z,7.32
2023-01-13T13:39:28.868Z,7.35
2023-01-13T13:41:23.546Z,7.31
2023-01-13T13:43:15.664Z,7.26
2023-01-13T13:45:06.850Z,7.25
2023-01-13T13:46:48.417Z,7.21
2023-01-13T13:48:22.170Z,7.20
2023-01-13T13:49:54.664Z,7.18
2023-01-13T13:51:38.485Z,7.11
2023-01-13T13:53:11.396Z,7.03
2023-01-13T13:54:49.267Z,6.99
2023-01-13T13:56:25.953Z,6.97
2023-01-13T13:57:59.247Z,6.91
2023-01-13T13:59:33.608Z,6.88
2023-01-13T14:01:05.859Z,6.86
2023-01-13T14:02:38.090Z,6.83
2023-01-13T14:04:10.248Z,6.76
2023-01-13T14:06:04.698Z,6.76
2023-01-13T14:07:47.039Z,6.73
2023-01-13T14:09:19.454Z,6.72
2023-01-13T14:10:51.611Z,6.63
2023-01-13T14:12:24.870Z,6.61
2023-01-13T14:14:04.533Z,6.62
2023-01-13T14:15:36.999Z,6.58
2023-01-13T14:17:17.576Z,6.53
2023-01-13T14:18:49.564Z,6.52
2023-01-13T14:20:21.711Z,6.50
2023-01-13T14:21:54.249Z,6.47
2023-01-13T14:23:27.474Z,6.43
2023-01-13T14:25:01.714Z,6.46
2023-01-13T14:26:34.979Z,6.44
2023-01-13T14:28:14.553Z,6.41
2023-01-13T14:29:46.634Z,6.41
2023-01-13T14:31:18.752Z,6.36
2023-01-13T14:32:51.105Z,6.35
2023-01-13T14:34:31.166Z,6.35
2023-01-13T14:36:18.565Z,6.33
2023-01-13T14:37:54.357Z,6.31
2023-01-13T14:39:34.089Z,6.32
2023-01-13T14:41:16.136Z,6.29
2023-01-13T14:42:56.256Z,6.28
2023-01-13T14:44:32.477Z,6.25
2023-01-13T14:46:04.668Z,6.24
2023-01-13T14:47:36.866Z,6.24
2023-01-13T14:49:21.039Z,6.24
2023-01-13T14:50:52.997Z,6.22
2023-01-13T14:52:26.040Z,6.21
2023-01-13T14:53:58.526Z,6.21
2023-01-13T14:55:31.454Z,6.20
2023-01-13T14:57:12.079Z,6.18
2023-01-13T14:58:44.120Z,6.20
2023-01-13T15:00:16.225Z,6.19
2023-01-13T15:01:48.553Z,6.22
2023-01-13T15:03:21.078Z,6.20
2023-01-13T15:04:54.392Z,6.18
2023-01-13T15:06:26.798Z,6.16
2023-01-13T15:08:00.811Z,6.16
2023-01-13T15:09:40.073Z,6.15
2023-01-13T15:11:20.491Z,6.17
2023-01-13T15:12:53.887Z,6.17
2023-01-13T15:14:27.718Z,6.14
2023-01-13T15:16:01.288Z,6.13
2023-01-13T15:17:33.337Z,6.12
2023-01-13T15:19:05.322Z,6.11
2023-01-13T15:20:37.309Z,6.12
2023-01-13T15:22:09.245Z,6.12
2023-01-13T15:23:41.750Z,6.10
2023-01-13T15:25:14.966Z,6.11
2023-01-13T15:26:46.938Z,6.13
2023-01-13T15:28:23.131Z,6.11
2023-01-13T15:29:55.195Z,6.13
2023-01-13T15:31:28.249Z,6.09
2023-01-13T15:33:00.747Z,6.11
2023-01-13T15:34:33.098Z,6.08
2023-01-13T15:36:06.598Z,6.10
2023-01-13T15:37:38.659Z,6.10
2023-01-13T15:39:11.383Z,6.07
2023-01-13T15:40:43.510Z,6.07
2023-01-13T15:42:33.864Z,6.08
2023-01-13T15:44:24.577Z,6.09
2023-01-13T15:46:15.322Z,6.07
2023-01-13T15:47:48.364Z,6.06
2023-01-13T15:49:26.500Z,6.07
2023-01-13T15:50:58.824Z,6.06
2023-01-13T15:52:31.314Z,6.09
2023-01-13T15:54:03.339Z,6.06
2023-01-13T15:55:37.289Z,6.06
2023-01-13T15:57:18.877Z,6.06
2023-01-13T15:58:50.945Z,6.06
2023-01-13T16:00:23.203Z,6.06
2023-01-13T16:01:55.244Z,6.06
2023-01-13T16:03:27.216Z,6.08
2023-01-13T16:04:59.772Z,6.11
2023-01-13T16:06:36.268Z,6.13
2023-01-13T16:08:14.402Z,6.15
2023-01-13T16:09:46.568Z,6.13
2023-01-13T16:11:18.579Z,6.16
2023-01-13T16:12:50.577Z,6.15
2023-01-13T16:14:22.649Z,6.13
2023-01-13T16:15:56.693Z,6.12
2023-01-13T16:17:31.219Z,6.12
2023-01-13T16:19:03.217Z,6.14
2023-01-13T16:20:36.251Z,6.12
2023-01-13T16:22:09.614Z,6.13
2023-01-13T16:23:41.758Z,6.19
2023-01-13T16:25:17.755Z,6.19
2023-01-13T16:26:49.904Z,6.13
2023-01-13T16:28:24.052Z,6.11
2023-01-13T16:29:58.950Z,6.07
2023-01-13T16:31:32.993Z,6.10
2023-01-13T16:33:05.065Z,6.07
2023-01-13T16:34:37.216Z,6.05
2023-01-13T16:36:16.011Z,5.99
2023-01-13T16:37:48.586Z,5.95
2023-01-13T16:39:25.604Z,5.91
2023-01-13T16:41:14.344Z,5.88
2023-01-13T16:42:49.456Z,5.86
2023-01-13T16:44:21.469Z,5.83
2023-01-13T16:45:53.508Z,5.83
2023-01-13T16:47:25.558Z,5.80
2023-01-13T16:49:01.927Z,5.80
2023-01-13T16:50:36.103Z,5.78
2023-01-13T16:52:08.226Z,5.78
2023-01-13T16:53:40.304Z,5.76
2023-01-13T16:55:12.347Z,5.77
2023-01-13T16:56:45.251Z,5.76
2023-01-13T16:58:18.483Z,5.79
2023-01-13T16:59:53.187Z,5.84
2023-01-13T17:01:34.756Z,5.85
2023-01-13T17:03:06.984Z,5.88
2023-01-13T17:05:07.927Z,5.92
2023-01-13T17:06:53.109Z,5.96
2023-01-13T17:08:25.144Z,5.99
2023-01-13T17:09:57.597Z,6.00
2023-01-13T17:11:29.956Z,6.05
2023-01-13T17:13:14.077Z,6.05
2023-01-13T17:14:47.907Z,6.07
2023-01-13T17:16:21.492Z,6.08
2023-01-13T17:17:55.323Z,6.09
2023-01-13T17:19:27.288Z,6.11
2023-01-13T17:21:00.055Z,6.12
2023-01-13T17:22:32.338Z,6.14
2023-01-13T17:24:08.071Z,6.15
2023-01-13T17:25:40.187Z,6.18
2023-01-13T17:27:12.380Z,6.21
2023-01-13T17:28:45.662Z,6.23
2023-01-13T17:30:17.743Z,6.27
2023-01-13T17:31:50.923Z,6.28
2023-01-13T17:33:23.182Z,6.30
2023-01-13T17:34:55.381Z,6.32
2023-01-13T17:36:27.465Z,6.35
2023-01-13T17:37:59.447Z,6.37
2023-01-13T17:39:32.418Z,6.39
2023-01-13T17:41:05.517Z,6.41
2023-01-13T17:42:37.796Z,6.44
2023-01-13T17:44:12.882Z,6.38
2023-01-13T17:45:45.059Z,6.28
2023-01-13T17:47:17.038Z,6.20
2023-01-13T17:48:50.775Z,6.12
2023-01-13T17:50:22.823Z,6.10
2023-01-13T17:51:55.048Z,6.03
2023-01-13T17:53:26.990Z,5.95
2023-01-13T17:54:59.081Z,5.90
2023-01-13T17:56:31.179Z,5.88
2023-01-13T17:58:03.285Z,5.84
2023-01-13T17:59:35.315Z,5.82
2023-01-13T18:01:08.809Z,5.79
2023-01-13T18:02:40.880Z,5.75
2023-01-13T18:04:17.227Z,5.74
2023-01-13T18:05:49.477Z,5.73
2023-01-13T18:07:21.562Z,5.69
2023-01-13T18:08:53.786Z,5.67
2023-01-13T18:10:25.765Z,5.68
2023-01-13T18:11:58.841Z,5.67
2023-01-13T18:13:33.715Z,5.68
2023-01-13T18:15:07.337Z,5.69
2023-01-13T18:16:39.502Z,5.66
2023-01-13T18:18:11.470Z,5.65
2023-01-13T18:20:01.979Z,5.67
2023-01-13T18:21:53.048Z,5.65
2023-01-13T18:23:43.376Z,5.63
2023-01-13T18:25:34.049Z,5.63
2023-01-13T18:27:18.969Z,5.63
2023-01-13T18:28:50.878Z,5.63
2023-01-13T18:30:22.866Z,5.62
2023-01-13T18:31:54.808Z,5.60
2023-01-13T18:33:26.801Z,5.60
2023-01-13T18:35:05.622Z,5.57
2023-01-13T18:36:38.367Z,5.57
2023-01-13T18:38:13.562Z,5.54
2023-01-13T18:39:45.516Z,5.55
2023-01-13T18:41:36.094Z,5.53
2023-01-13T18:43:07.986Z,5.45
2023-01-13T18:44:40.171Z,5.43
2023-01-13T18:46:12.251Z,5.43
2023-01-13T18:47:44.339Z,5.45
2023-01-13T18:49:16.366Z,5.44
2023-01-13T18:50:48.398Z,5.44
2023-01-13T18:52:20.456Z,5.42
2023-01-13T18:53:53.913Z,5.42
2023-01-13T18:55:27.190Z,5.41
2023-01-13T18:57:01.178Z,5.41
2023-01-13T18:58:33.464Z,5.41
2023-01-13T19:00:05.842Z,5.41
2023-01-13T19:01:38.237Z,5.42
2023-01-13T19:03:11.853Z,5.43
2023-01-13T19:04:44.122Z,5.45
2023-01-13T19:06:16.134Z,5.43
2023-01-13T19:07:51.270Z,5.45
2023-01-13T19:09:26.547Z,5.43
2023-01-13T19:11:04.280Z,5.43
2023-01-13T19:12:36.351Z,5.45
2023-01-13T19:14:08.616Z,5.43
2023-01-13T19:15:40.617Z,5.40
2023-01-13T19:17:13.754Z,5.43
2023-01-13T19:18:45.853Z,5.44
2023-01-13T19:20:18.020Z,5.45
2023-01-13T19:21:50.008Z,5.49
2023-01-13T19:23:21.956Z,5.51
2023-01-13T19:24:54.375Z,5.54
2023-01-13T19:26:26.359Z,5.55
2023-01-13T19:27:58.390Z,5.59
2023-01-13T19:29:33.218Z,5.61
2023-01-13T19:31:07.201Z,5.62
2023-01-13T19:32:39.182Z,5.65
2023-01-13T19:34:11.552Z,5.67
2023-01-13T19:35:43.583Z,5.69
2023-01-13T19:37:15.742Z,5.71
2023-01-13T19:38:47.690Z,5.74
2023-01-13T19:40:19.963Z,5.74
2023-01-13T19:42:10.366Z,5.75
2023-01-13T19:44:01.086Z,5.74
2023-01-13T19:45:35.326Z,5.74
2023-01-13T19:47:07.776Z,5.74
2023-01-13T19:48:40.179Z,5.75
2023-01-13T19:50:13.684Z,5.75
2023-01-13T19:51:45.742Z,5.74
2023-01-13T19:53:18.020Z,5.70
2023-01-13T19:54:50.036Z,5.71
2023-01-13T19:56:22.071Z,5.68
2023-01-13T19:57:54.212Z,5.63
2023-01-13T19:59:29.305Z,5.60
2023-01-13T20:01:09.196Z,5.57
2023-01-13T20:02:47.833Z,5.55
2023-01-13T20:04:27.152Z,5.54
2023-01-13T20:06:04.852Z,5.54
2023-01-13T20:07:36.854Z,5.51
2023-01-13T20:09:08.796Z,5.52
2023-01-13T20:10:41.463Z,5.52
2023-01-13T20:12:14.103Z,5.51
2023-01-13T20:13:46.087Z,5.54
2023-01-13T20:15:18.102Z,5.53
2023-01-13T20:16:50.108Z,5.52
2023-01-13T20:18:22.135Z,5.52
2023-01-13T20:19:54.512Z,5.54
2023-01-13T20:21:26.601Z,5.54
2023-01-13T20:22:59.611Z,5.54
2023-01-13T20:24:31.650Z,5.56
2023-01-13T20:26:07.552Z,5.58
2023-01-13T20:27:39.709Z,5.60
2023-01-13T20:29:11.881Z,5.63
2023-01-13T20:30:43.876Z,5.66
2023-01-13T20:32:15.822Z,5.66
2023-01-13T20:33:51.011Z,5.70
2023-01-13T20:35:24.398Z,5.72
2023-01-13T20:36:56.726Z,5.76
2023-01-13T20:38:28.775Z,5.79
2023-01-13T20:40:01.889Z,5.80
2023-01-13T20:41:53.275Z,5.83
2023-01-13T20:43:26.752Z,5.86
2023-01-13T20:44:59.774Z,5.85
2023-01-13T20:46:31.862Z,5.83
2023-01-13T20:48:03.872Z,5.82
2023-01-13T20:49:36.966Z,5.80
2023-01-13T20:51:09.051Z,5.79
2023-01-13T20:52:41.195Z,5.77
2023-01-13T20:54:13.157Z,5.74
2023-01-13T20:55:45.145Z,5.71
2023-01-13T20:57:17.457Z,5.70
2023-01-13T20:58:49.517Z,5.70
2023-01-13T21:00:21.670Z,5.69
2023-01-13T21:01:53.666Z,5.65
2023-01-13T21:03:25.673Z,5.63
2023-01-13T21:04:58.268Z,5.60
2023-01-13T21:06:30.255Z,5.57
2023-01-13T21:08:02.418Z,5.53
2023-01-13T21:09:34.474Z,5.49
2023-01-13T21:11:10.440Z,5.44
2023-01-13T21:13:00.783Z,5.38